Mikado, MI (48745)

11:52 AM EST on February 27, 2015 (GMT -0500)
Oscoda-Wurtsmith | Change Station
CLOSE
Current Station
Airport
Location: Oscoda,
Elevation: 633 ft
Nearby Weather Stations

Elev 633 ft 44.45 °N, 83.39 °W | Updated 19 minutes ago

Clear
Clear
12 °F
Feels Like -1 °F
N
10
Wind Variable Wind from WSW

Today
High -- | Low -- °F
--% Chance of Precip.
Yesterday
High -- | Low -- °F
Precip. -- in
7:15 AM 6:18 PM
Waxing Gibbous, 70% visible
Pressure 30.48 in
Visibility 10.0 miles
Clouds Clear
Windchill -1 °F
Dew Point 0 °F
Humidity 58%
Rainfall 0.00 in
Snow Depth Not available.
UV 4 out of 12
Pollen .30 out of 12
Air Quality Not available.
Flu Activity Not available.
METAR KOSC 271633Z AUTO 24009KT 10SM CLR M11/M17 A3048 RMK AO2 T11111179

More Conditions Fewer Conditions

Pressure 30.48 in
Visibility 10.0 miles
Clouds Clear
Windchill -1 °F
Dew Point 0 °F
Humidity 58%
Rainfall 0.00 in
Snow Depth Not available.
UV 4 out of 12
Pollen .30 out of 12
Air Quality Not available.
Flu Activity Not available.
METAR KOSC 271633Z AUTO 24009KT 10SM CLR M11/M17 A3048 RMK AO2 T11111179

More Conditions Fewer Conditions

Nowcast | as of 11:00 am EST on February 27, 2015

At 12 PM...clear. Temperature 10 above. West winds 9 mph. At 2 PM...clear. Temperature 17. West winds 10 mph. At 4 PM...clear. Temperature 17. West winds 10 mph. At 6 PM...clear. Temperature 14. Southwest winds 8 mph.

×

10-Day Weather Forecast

Almanac

Astronomy

Feb. 27, 2015 Rise Set
Actual Time
Civil Twilight
Nautical Twilight
Astronomical Twilight
Moon
Length of Visible Light
Length of Day
Tomorrow will be .
, % of the Moon is Illuminated

Today's Extremes

State Highs State Lows

Community

WunderPhotos

Upload Photos

1,800,732 photos uploaded!

WunderBlogs® & News

Nearby

Air Quality

  Air Quality AQ Index Pollutant
Not available.

Snow Depth

Station Depth Elevation

Earthquake Activity

City Distance Mag. Time & Date
Minimum magnitude displayed is 2.5.

Coastal Water Temperatures

Place Temperature

Nearby Weather Stations